sensor_id;sensor_type;location;lat;lon;timestamp;P1;durP1;ratioP1;P2;durP2;ratioP2
6217;SDS011;3142;48.206;11.550;2022-12-22T00:00:57;3.50;;;2.97;;
6217;SDS011;3142;48.206;11.550;2022-12-22T00:03:41;3.57;;;3.00;;
6217;SDS011;3142;48.206;11.550;2022-12-22T00:06:25;3.13;;;2.80;;
6217;SDS011;3142;48.206;11.550;2022-12-22T00:09:10;3.07;;;2.60;;
6217;SDS011;3142;48.206;11.550;2022-12-22T00:11:54;3.23;;;2.83;;
6217;SDS011;3142;48.206;11.550;2022-12-22T00:14:38;4.33;;;3.30;;
6217;SDS011;3142;48.206;11.550;2022-12-22T00:17:22;3.40;;;2.70;;
6217;SDS011;3142;48.206;11.550;2022-12-22T00:20:11;3.63;;;3.10;;
6217;SDS011;3142;48.206;11.550;2022-12-22T00:22:56;4.23;;;3.23;;
6217;SDS011;3142;48.206;11.550;2022-12-22T00:25:42;3.13;;;2.63;;
6217;SDS011;3142;48.206;11.550;2022-12-22T00:28:26;3.03;;;2.47;;
6217;SDS011;3142;48.206;11.550;2022-12-22T00:31:10;3.40;;;3.00;;
6217;SDS011;3142;48.206;11.550;2022-12-22T00:33:54;4.77;;;3.30;;
6217;SDS011;3142;48.206;11.550;2022-12-22T00:36:38;4.20;;;3.30;;
6217;SDS011;3142;48.206;11.550;2022-12-22T00:39:23;3.67;;;3.23;;
6217;SDS011;3142;48.206;11.550;2022-12-22T00:42:09;4.73;;;3.60;;
6217;SDS011;3142;48.206;11.550;2022-12-22T00:44:52;9.50;;;3.90;;
6217;SDS011;3142;48.206;11.550;2022-12-22T00:47:36;4.93;;;3.43;;
6217;SDS011;3142;48.206;11.550;2022-12-22T00:50:21;5.23;;;3.53;;
6217;SDS011;3142;48.206;11.550;2022-12-22T00:53:10;4.83;;;3.73;;
6217;SDS011;3142;48.206;11.550;2022-12-22T00:55:53;4.87;;;3.63;;
6217;SDS011;3142;48.206;11.550;2022-12-22T00:58:39;4.60;;;3.77;;
6217;SDS011;3142;48.206;11.550;2022-12-22T01:01:23;4.67;;;4.20;;
6217;SDS011;3142;48.206;11.550;2022-12-22T01:04:08;4.20;;;3.70;;
6217;SDS011;3142;48.206;11.550;2022-12-22T01:06:52;5.43;;;4.17;;
6217;SDS011;3142;48.206;11.550;2022-12-22T01:09:36;4.73;;;4.00;;
6217;SDS011;3142;48.206;11.550;2022-12-22T01:12:20;4.40;;;4.00;;
6217;SDS011;3142;48.206;11.550;2022-12-22T01:15:09;4.13;;;3.70;;
6217;SDS011;3142;48.206;11.550;2022-12-22T01:17:55;4.93;;;3.90;;
6217;SDS011;3142;48.206;11.550;2022-12-22T01:20:39;4.37;;;3.50;;
6217;SDS011;3142;48.206;11.550;2022-12-22T01:23:23;3.93;;;3.33;;
6217;SDS011;3142;48.206;11.550;2022-12-22T01:26:08;3.10;;;2.80;;
6217;SDS011;3142;48.206;11.550;2022-12-22T01:28:52;3.03;;;2.80;;
6217;SDS011;3142;48.206;11.550;2022-12-22T01:31:38;3.20;;;2.90;;
6217;SDS011;3142;48.206;11.550;2022-12-22T01:34:21;3.47;;;3.13;;
6217;SDS011;3142;48.206;11.550;2022-12-22T01:37:05;3.23;;;2.87;;
6217;SDS011;3142;48.206;11.550;2022-12-22T01:39:49;2.83;;;2.63;;
6217;SDS011;3142;48.206;11.550;2022-12-22T01:42:33;3.00;;;2.70;;
6217;SDS011;3142;48.206;11.550;2022-12-22T01:45:19;3.30;;;2.77;;
6217;SDS011;3142;48.206;11.550;2022-12-22T01:48:09;3.07;;;2.57;;
6217;SDS011;3142;48.206;11.550;2022-12-22T01:50:55;2.17;;;2.03;;
6217;SDS011;3142;48.206;11.550;2022-12-22T01:53:40;2.43;;;1.90;;
6217;SDS011;3142;48.206;11.550;2022-12-22T01:56:24;3.57;;;2.33;;
6217;SDS011;3142;48.206;11.550;2022-12-22T01:59:08;2.17;;;1.97;;
6217;SDS011;3142;48.206;11.550;2022-12-22T02:01:52;2.47;;;2.17;;
6217;SDS011;3142;48.206;11.550;2022-12-22T02:04:38;1.87;;;1.77;;
6217;SDS011;3142;48.206;11.550;2022-12-22T02:07:45;2.07;;;1.87;;
6217;SDS011;3142;48.206;11.550;2022-12-22T02:10:42;1.97;;;1.87;;
6217;SDS011;3142;48.206;11.550;2022-12-22T02:16:04;2.00;;;1.80;;
6217;SDS011;3142;48.206;11.550;2022-12-22T02:18:56;2.77;;;1.80;;
6217;SDS011;3142;48.206;11.550;2022-12-22T02:21:46;1.80;;;1.70;;
6217;SDS011;3142;48.206;11.550;2022-12-22T02:24:42;2.70;;;1.70;;
6217;SDS011;3142;48.206;11.550;2022-12-22T02:27:34;2.30;;;1.70;;
6217;SDS011;3142;48.206;11.550;2022-12-22T02:30:20;2.30;;;2.00;;
6217;SDS011;3142;48.206;11.550;2022-12-22T02:33:04;1.73;;;1.63;;
6217;SDS011;3142;48.206;11.550;2022-12-22T02:35:48;3.67;;;2.30;;
6217;SDS011;3142;48.206;11.550;2022-12-22T02:38:43;2.20;;;2.00;;
6217;SDS011;3142;48.206;11.550;2022-12-22T02:41:33;2.37;;;2.10;;
6217;SDS011;3142;48.206;11.550;2022-12-22T02:44:29;1.87;;;1.77;;
6217;SDS011;3142;48.206;11.550;2022-12-22T02:47:27;3.20;;;2.57;;
6217;SDS011;3142;48.206;11.550;2022-12-22T02:50:17;5.03;;;2.20;;
6217;SDS011;3142;48.206;11.550;2022-12-22T02:53:05;2.87;;;1.83;;
6217;SDS011;3142;48.206;11.550;2022-12-22T02:55:55;2.03;;;1.70;;
6217;SDS011;3142;48.206;11.550;2022-12-22T02:58:41;1.83;;;1.67;;
6217;SDS011;3142;48.206;11.550;2022-12-22T03:01:27;1.70;;;1.60;;
6217;SDS011;3142;48.206;11.550;2022-12-22T03:04:11;3.30;;;1.60;;
6217;SDS011;3142;48.206;11.550;2022-12-22T03:06:55;1.70;;;1.60;;
6217;SDS011;3142;48.206;11.550;2022-12-22T03:09:39;1.60;;;1.50;;
6217;SDS011;3142;48.206;11.550;2022-12-22T03:12:22;1.73;;;1.50;;
6217;SDS011;3142;48.206;11.550;2022-12-22T03:15:07;1.43;;;1.33;;
6217;SDS011;3142;48.206;11.550;2022-12-22T03:17:52;2.03;;;1.93;;
6217;SDS011;3142;48.206;11.550;2022-12-22T03:20:36;2.03;;;1.73;;
6217;SDS011;3142;48.206;11.550;2022-12-22T03:23:20;1.63;;;1.53;;
6217;SDS011;3142;48.206;11.550;2022-12-22T03:26:04;1.83;;;1.50;;
6217;SDS011;3142;48.206;11.550;2022-12-22T03:28:30;1.97;;;1.70;;
6217;SDS011;3142;48.206;11.550;2022-12-22T03:30:57;2.80;;;1.70;;
6217;SDS011;3142;48.206;11.550;2022-12-22T03:33:27;1.70;;;1.60;;
6217;SDS011;3142;48.206;11.550;2022-12-22T03:35:54;1.67;;;1.50;;
6217;SDS011;3142;48.206;11.550;2022-12-22T03:38:21;1.80;;;1.70;;
6217;SDS011;3142;48.206;11.550;2022-12-22T03:40:48;1.70;;;1.60;;
6217;SDS011;3142;48.206;11.550;2022-12-22T03:43:15;1.60;;;1.50;;
6217;SDS011;3142;48.206;11.550;2022-12-22T03:46:00;1.60;;;1.50;;
6217;SDS011;3142;48.206;11.550;2022-12-22T03:48:45;2.83;;;1.73;;
6217;SDS011;3142;48.206;11.550;2022-12-22T03:51:32;2.27;;;1.60;;
6217;SDS011;3142;48.206;11.550;2022-12-22T03:54:00;1.50;;;1.40;;
6217;SDS011;3142;48.206;11.550;2022-12-22T03:56:26;2.27;;;1.50;;
6217;SDS011;3142;48.206;11.550;2022-12-22T03:58:53;1.33;;;1.20;;
6217;SDS011;3142;48.206;11.550;2022-12-22T04:01:19;1.83;;;1.30;;
6217;SDS011;3142;48.206;11.550;2022-12-22T04:03:48;2.13;;;1.27;;
6217;SDS011;3142;48.206;11.550;2022-12-22T04:06:15;3.03;;;1.93;;
6217;SDS011;3142;48.206;11.550;2022-12-22T04:08:41;2.23;;;1.57;;
6217;SDS011;3142;48.206;11.550;2022-12-22T04:11:08;2.73;;;2.23;;
6217;SDS011;3142;48.206;11.550;2022-12-22T04:13:52;3.43;;;1.80;;
6217;SDS011;3142;48.206;11.550;2022-12-22T04:16:19;3.70;;;1.70;;
6217;SDS011;3142;48.206;11.550;2022-12-22T04:18:45;2.10;;;1.90;;
6217;SDS011;3142;48.206;11.550;2022-12-22T04:21:13;2.13;;;1.73;;
6217;SDS011;3142;48.206;11.550;2022-12-22T04:23:39;1.40;;;1.30;;
6217;SDS011;3142;48.206;11.550;2022-12-22T04:26:06;1.63;;;1.50;;
6217;SDS011;3142;48.206;11.550;2022-12-22T04:28:32;2.63;;;1.90;;
6217;SDS011;3142;48.206;11.550;2022-12-22T04:30:59;1.67;;;1.57;;
6217;SDS011;3142;48.206;11.550;2022-12-22T04:33:25;1.90;;;1.40;;
6217;SDS011;3142;48.206;11.550;2022-12-22T04:35:52;2.33;;;1.67;;
6217;SDS011;3142;48.206;11.550;2022-12-22T04:38:19;2.33;;;1.90;;
6217;SDS011;3142;48.206;11.550;2022-12-22T04:40:46;2.23;;;2.00;;
6217;SDS011;3142;48.206;11.550;2022-12-22T04:43:13;4.00;;;2.20;;
6217;SDS011;3142;48.206;11.550;2022-12-22T04:45:39;2.20;;;1.70;;
6217;SDS011;3142;48.206;11.550;2022-12-22T04:48:05;1.30;;;1.20;;
6217;SDS011;3142;48.206;11.550;2022-12-22T04:50:32;2.57;;;1.30;;
6217;SDS011;3142;48.206;11.550;2022-12-22T04:52:58;1.23;;;1.13;;
6217;SDS011;3142;48.206;11.550;2022-12-22T04:55:26;1.20;;;1.10;;
6217;SDS011;3142;48.206;11.550;2022-12-22T04:57:52;1.47;;;1.37;;
6217;SDS011;3142;48.206;11.550;2022-12-22T05:00:19;1.67;;;1.37;;
6217;SDS011;3142;48.206;11.550;2022-12-22T05:02:45;1.20;;;1.10;;
6217;SDS011;3142;48.206;11.550;2022-12-22T05:05:12;0.93;;;0.90;;
6217;SDS011;3142;48.206;11.550;2022-12-22T05:07:38;1.90;;;1.10;;
6217;SDS011;3142;48.206;11.550;2022-12-22T05:10:05;1.97;;;1.07;;
6217;SDS011;3142;48.206;11.550;2022-12-22T05:12:34;1.00;;;1.00;;
6217;SDS011;3142;48.206;11.550;2022-12-22T05:15:18;1.37;;;1.10;;
6217;SDS011;3142;48.206;11.550;2022-12-22T05:17:44;1.00;;;0.90;;
6217;SDS011;3142;48.206;11.550;2022-12-22T05:20:11;1.77;;;1.00;;
6217;SDS011;3142;48.206;11.550;2022-12-22T05:22:37;1.00;;;1.00;;
6217;SDS011;3142;48.206;11.550;2022-12-22T05:25:04;1.67;;;0.80;;
6217;SDS011;3142;48.206;11.550;2022-12-22T05:27:31;1.00;;;1.00;;
6217;SDS011;3142;48.206;11.550;2022-12-22T05:29:59;1.13;;;1.13;;
6217;SDS011;3142;48.206;11.550;2022-12-22T05:32:25;1.13;;;1.10;;
6217;SDS011;3142;48.206;11.550;2022-12-22T05:34:52;2.73;;;1.30;;
6217;SDS011;3142;48.206;11.550;2022-12-22T05:37:18;1.87;;;1.20;;
6217;SDS011;3142;48.206;11.550;2022-12-22T05:39:45;1.70;;;1.33;;
6217;SDS011;3142;48.206;11.550;2022-12-22T05:42:11;1.43;;;1.10;;
6217;SDS011;3142;48.206;11.550;2022-12-22T05:44:37;1.10;;;0.90;;
6217;SDS011;3142;48.206;11.550;2022-12-22T05:47:05;0.90;;;0.90;;
6217;SDS011;3142;48.206;11.550;2022-12-22T05:49:32;1.10;;;0.80;;
6217;SDS011;3142;48.206;11.550;2022-12-22T05:51:58;1.43;;;1.03;;
6217;SDS011;3142;48.206;11.550;2022-12-22T05:54:24;1.10;;;1.00;;
6217;SDS011;3142;48.206;11.550;2022-12-22T05:56:51;1.83;;;0.93;;
6217;SDS011;3142;48.206;11.550;2022-12-22T05:59:17;2.80;;;1.07;;
6217;SDS011;3142;48.206;11.550;2022-12-22T06:01:44;1.00;;;1.00;;
6217;SDS011;3142;48.206;11.550;2022-12-22T06:04:11;0.90;;;0.90;;
6217;SDS011;3142;48.206;11.550;2022-12-22T06:06:38;0.80;;;0.80;;
6217;SDS011;3142;48.206;11.550;2022-12-22T06:09:04;1.10;;;0.90;;
6217;SDS011;3142;48.206;11.550;2022-12-22T06:11:30;1.30;;;1.10;;
6217;SDS011;3142;48.206;11.550;2022-12-22T06:13:57;0.80;;;0.80;;
6217;SDS011;3142;48.206;11.550;2022-12-22T06:16:23;1.33;;;1.13;;
6217;SDS011;3142;48.206;11.550;2022-12-22T06:18:50;1.43;;;1.10;;
6217;SDS011;3142;48.206;11.550;2022-12-22T06:21:18;1.17;;;1.00;;
6217;SDS011;3142;48.206;11.550;2022-12-22T06:23:44;1.27;;;1.10;;
6217;SDS011;3142;48.206;11.550;2022-12-22T06:26:10;1.03;;;0.80;;
6217;SDS011;3142;48.206;11.550;2022-12-22T06:28:37;1.00;;;0.90;;
6217;SDS011;3142;48.206;11.550;2022-12-22T06:31:03;1.37;;;1.20;;
6217;SDS011;3142;48.206;11.550;2022-12-22T06:33:30;1.40;;;1.13;;
6217;SDS011;3142;48.206;11.550;2022-12-22T06:35:56;0.90;;;0.90;;
6217;SDS011;3142;48.206;11.550;2022-12-22T06:38:24;1.77;;;1.43;;
6217;SDS011;3142;48.206;11.550;2022-12-22T06:40:51;1.23;;;0.90;;
6217;SDS011;3142;48.206;11.550;2022-12-22T06:43:17;2.40;;;1.07;;
6217;SDS011;3142;48.206;11.550;2022-12-22T06:45:43;2.10;;;1.27;;
6217;SDS011;3142;48.206;11.550;2022-12-22T06:48:10;1.73;;;1.20;;
6217;SDS011;3142;48.206;11.550;2022-12-22T06:50:37;1.97;;;1.03;;
6217;SDS011;3142;48.206;11.550;2022-12-22T06:53:06;3.67;;;1.10;;
6217;SDS011;3142;48.206;11.550;2022-12-22T06:55:35;2.43;;;1.20;;
6217;SDS011;3142;48.206;11.550;2022-12-22T06:58:02;1.10;;;1.00;;
6217;SDS011;3142;48.206;11.550;2022-12-22T07:00:28;1.30;;;1.20;;
6217;SDS011;3142;48.206;11.550;2022-12-22T07:02:55;1.83;;;1.43;;
6217;SDS011;3142;48.206;11.550;2022-12-22T07:05:22;1.77;;;1.63;;
6217;SDS011;3142;48.206;11.550;2022-12-22T07:07:49;1.50;;;1.40;;
6217;SDS011;3142;48.206;11.550;2022-12-22T07:10:15;1.77;;;1.10;;
6217;SDS011;3142;48.206;11.550;2022-12-22T07:12:43;1.60;;;1.20;;
6217;SDS011;3142;48.206;11.550;2022-12-22T07:15:10;2.23;;;1.37;;
6217;SDS011;3142;48.206;11.550;2022-12-22T07:17:36;1.77;;;1.20;;
6217;SDS011;3142;48.206;11.550;2022-12-22T07:20:05;0.93;;;0.93;;
6217;SDS011;3142;48.206;11.550;2022-12-22T07:22:33;2.50;;;1.40;;
6217;SDS011;3142;48.206;11.550;2022-12-22T07:24:59;2.13;;;1.10;;
6217;SDS011;3142;48.206;11.550;2022-12-22T07:27:26;2.90;;;1.30;;
6217;SDS011;3142;48.206;11.550;2022-12-22T07:29:53;3.87;;;1.00;;
6217;SDS011;3142;48.206;11.550;2022-12-22T07:32:20;5.27;;;1.40;;
6217;SDS011;3142;48.206;11.550;2022-12-22T07:34:46;1.70;;;1.03;;
6217;SDS011;3142;48.206;11.550;2022-12-22T07:37:13;2.37;;;1.40;;
6217;SDS011;3142;48.206;11.550;2022-12-22T07:39:39;3.97;;;1.77;;
6217;SDS011;3142;48.206;11.550;2022-12-22T07:42:05;2.67;;;1.30;;
6217;SDS011;3142;48.206;11.550;2022-12-22T07:44:50;4.77;;;1.50;;
6217;SDS011;3142;48.206;11.550;2022-12-22T07:47:17;4.33;;;1.87;;
6217;SDS011;3142;48.206;11.550;2022-12-22T07:49:44;3.27;;;1.40;;
6217;SDS011;3142;48.206;11.550;2022-12-22T07:52:28;6.17;;;2.10;;
6217;SDS011;3142;48.206;11.550;2022-12-22T07:54:54;2.47;;;1.33;;
6217;SDS011;3142;48.206;11.550;2022-12-22T07:57:21;3.37;;;1.27;;
6217;SDS011;3142;48.206;11.550;2022-12-22T07:59:50;3.33;;;1.70;;
6217;SDS011;3142;48.206;11.550;2022-12-22T08:02:17;3.33;;;1.60;;
6217;SDS011;3142;48.206;11.550;2022-12-22T08:04:44;3.60;;;1.73;;
6217;SDS011;3142;48.206;11.550;2022-12-22T08:07:10;2.30;;;1.40;;
6217;SDS011;3142;48.206;11.550;2022-12-22T08:09:37;2.03;;;1.50;;
6217;SDS011;3142;48.206;11.550;2022-12-22T08:12:03;3.70;;;1.40;;
6217;SDS011;3142;48.206;11.550;2022-12-22T08:14:30;2.90;;;1.67;;
6217;SDS011;3142;48.206;11.550;2022-12-22T08:16:57;4.23;;;1.80;;
6217;SDS011;3142;48.206;11.550;2022-12-22T08:19:24;4.10;;;1.53;;
6217;SDS011;3142;48.206;11.550;2022-12-22T08:21:51;2.27;;;1.60;;
6217;SDS011;3142;48.206;11.550;2022-12-22T08:24:17;2.73;;;1.30;;
6217;SDS011;3142;48.206;11.550;2022-12-22T08:26:44;5.23;;;2.10;;
6217;SDS011;3142;48.206;11.550;2022-12-22T08:29:14;5.37;;;2.07;;
6217;SDS011;3142;48.206;11.550;2022-12-22T08:31:46;2.20;;;1.53;;
6217;SDS011;3142;48.206;11.550;2022-12-22T08:34:13;2.60;;;1.60;;
6217;SDS011;3142;48.206;11.550;2022-12-22T08:36:43;2.20;;;1.50;;
6217;SDS011;3142;48.206;11.550;2022-12-22T08:39:12;4.67;;;2.23;;
6217;SDS011;3142;48.206;11.550;2022-12-22T08:41:40;4.20;;;1.90;;
6217;SDS011;3142;48.206;11.550;2022-12-22T08:44:15;4.83;;;1.53;;
6217;SDS011;3142;48.206;11.550;2022-12-22T08:46:43;4.40;;;1.50;;
6217;SDS011;3142;48.206;11.550;2022-12-22T08:49:09;1.50;;;1.27;;
6217;SDS011;3142;48.206;11.550;2022-12-22T08:51:35;3.83;;;1.87;;
6217;SDS011;3142;48.206;11.550;2022-12-22T08:54:03;2.07;;;1.30;;
6217;SDS011;3142;48.206;11.550;2022-12-22T08:56:30;4.13;;;1.63;;
6217;SDS011;3142;48.206;11.550;2022-12-22T08:58:57;3.50;;;1.40;;
6217;SDS011;3142;48.206;11.550;2022-12-22T09:01:23;2.03;;;1.30;;
6217;SDS011;3142;48.206;11.550;2022-12-22T09:03:50;2.57;;;1.50;;
6217;SDS011;3142;48.206;11.550;2022-12-22T09:06:17;7.17;;;1.80;;
6217;SDS011;3142;48.206;11.550;2022-12-22T09:08:45;4.13;;;1.83;;
6217;SDS011;3142;48.206;11.550;2022-12-22T09:11:13;3.23;;;1.73;;
6217;SDS011;3142;48.206;11.550;2022-12-22T09:13:41;5.13;;;1.30;;
6217;SDS011;3142;48.206;11.550;2022-12-22T09:16:07;6.63;;;3.87;;
6217;SDS011;3142;48.206;11.550;2022-12-22T09:18:34;5.00;;;1.97;;
6217;SDS011;3142;48.206;11.550;2022-12-22T09:21:01;3.40;;;2.20;;
6217;SDS011;3142;48.206;11.550;2022-12-22T09:23:28;4.53;;;2.00;;
6217;SDS011;3142;48.206;11.550;2022-12-22T09:25:55;5.40;;;1.60;;
6217;SDS011;3142;48.206;11.550;2022-12-22T09:28:23;3.10;;;1.43;;
6217;SDS011;3142;48.206;11.550;2022-12-22T09:30:49;3.97;;;1.50;;
6217;SDS011;3142;48.206;11.550;2022-12-22T09:33:16;4.67;;;1.50;;
6217;SDS011;3142;48.206;11.550;2022-12-22T09:35:43;5.13;;;1.60;;
6217;SDS011;3142;48.206;11.550;2022-12-22T09:38:10;2.67;;;1.30;;
6217;SDS011;3142;48.206;11.550;2022-12-22T09:40:36;2.50;;;1.20;;
6217;SDS011;3142;48.206;11.550;2022-12-22T09:43:03;5.20;;;1.50;;
6217;SDS011;3142;48.206;11.550;2022-12-22T09:45:31;2.20;;;1.30;;
6217;SDS011;3142;48.206;11.550;2022-12-22T09:47:57;4.93;;;1.70;;
6217;SDS011;3142;48.206;11.550;2022-12-22T09:50:27;3.97;;;1.90;;
6217;SDS011;3142;48.206;11.550;2022-12-22T09:52:56;3.97;;;1.57;;
6217;SDS011;3142;48.206;11.550;2022-12-22T09:55:28;5.13;;;2.37;;
6217;SDS011;3142;48.206;11.550;2022-12-22T09:58:02;5.57;;;1.77;;
6217;SDS011;3142;48.206;11.550;2022-12-22T10:00:33;3.30;;;1.50;;
6217;SDS011;3142;48.206;11.550;2022-12-22T10:03:03;5.07;;;2.03;;
6217;SDS011;3142;48.206;11.550;2022-12-22T10:05:38;2.53;;;1.27;;
6217;SDS011;3142;48.206;11.550;2022-12-22T10:08:12;2.50;;;1.50;;
6217;SDS011;3142;48.206;11.550;2022-12-22T10:10:41;2.90;;;1.43;;
6217;SDS011;3142;48.206;11.550;2022-12-22T10:13:11;4.13;;;1.97;;
6217;SDS011;3142;48.206;11.550;2022-12-22T10:15:43;2.80;;;1.60;;
6217;SDS011;3142;48.206;11.550;2022-12-22T10:18:10;3.53;;;1.57;;
6217;SDS011;3142;48.206;11.550;2022-12-22T10:20:38;2.87;;;1.20;;
6217;SDS011;3142;48.206;11.550;2022-12-22T10:23:12;4.13;;;1.50;;
6217;SDS011;3142;48.206;11.550;2022-12-22T10:25:41;5.10;;;1.60;;
6217;SDS011;3142;48.206;11.550;2022-12-22T10:28:15;2.23;;;1.50;;
6217;SDS011;3142;48.206;11.550;2022-12-22T10:30:46;3.50;;;1.40;;
6217;SDS011;3142;48.206;11.550;2022-12-22T10:33:14;5.80;;;1.43;;
6217;SDS011;3142;48.206;11.550;2022-12-22T10:35:44;6.27;;;2.20;;
6217;SDS011;3142;48.206;11.550;2022-12-22T10:38:14;4.70;;;2.03;;
6217;SDS011;3142;48.206;11.550;2022-12-22T10:40:45;4.60;;;2.00;;
6217;SDS011;3142;48.206;11.550;2022-12-22T10:43:17;3.67;;;1.70;;
6217;SDS011;3142;48.206;11.550;2022-12-22T10:45:47;2.67;;;1.30;;
6217;SDS011;3142;48.206;11.550;2022-12-22T10:48:14;3.83;;;1.43;;
6217;SDS011;3142;48.206;11.550;2022-12-22T10:50:45;4.63;;;2.10;;
6217;SDS011;3142;48.206;11.550;2022-12-22T10:53:13;5.27;;;1.67;;
6217;SDS011;3142;48.206;11.550;2022-12-22T10:55:40;4.93;;;1.80;;
6217;SDS011;3142;48.206;11.550;2022-12-22T10:58:15;5.33;;;1.83;;
6217;SDS011;3142;48.206;11.550;2022-12-22T11:00:43;3.20;;;1.50;;
6217;SDS011;3142;48.206;11.550;2022-12-22T11:03:11;4.03;;;1.60;;
6217;SDS011;3142;48.206;11.550;2022-12-22T11:05:38;4.80;;;1.20;;
6217;SDS011;3142;48.206;11.550;2022-12-22T11:08:11;4.13;;;1.20;;
6217;SDS011;3142;48.206;11.550;2022-12-22T11:10:42;3.30;;;1.87;;
6217;SDS011;3142;48.206;11.550;2022-12-22T11:13:20;3.87;;;1.33;;
6217;SDS011;3142;48.206;11.550;2022-12-22T11:16:05;2.30;;;1.23;;
6217;SDS011;3142;48.206;11.550;2022-12-22T11:18:44;2.67;;;1.40;;
6217;SDS011;3142;48.206;11.550;2022-12-22T11:21:24;4.90;;;1.47;;
6217;SDS011;3142;48.206;11.550;2022-12-22T11:23:58;2.47;;;1.40;;
6217;SDS011;3142;48.206;11.550;2022-12-22T11:26:34;3.23;;;1.43;;
6217;SDS011;3142;48.206;11.550;2022-12-22T11:29:14;4.37;;;1.80;;
6217;SDS011;3142;48.206;11.550;2022-12-22T11:31:56;6.03;;;1.87;;
6217;SDS011;3142;48.206;11.550;2022-12-22T11:34:42;4.17;;;1.90;;
6217;SDS011;3142;48.206;11.550;2022-12-22T11:37:25;6.00;;;1.60;;
6217;SDS011;3142;48.206;11.550;2022-12-22T11:39:57;3.37;;;1.40;;
6217;SDS011;3142;48.206;11.550;2022-12-22T11:42:41;3.93;;;1.67;;
6217;SDS011;3142;48.206;11.550;2022-12-22T11:45:30;2.50;;;1.03;;
6217;SDS011;3142;48.206;11.550;2022-12-22T11:48:06;3.30;;;1.40;;
6217;SDS011;3142;48.206;11.550;2022-12-22T11:50:46;5.93;;;2.33;;
6217;SDS011;3142;48.206;11.550;2022-12-22T11:53:19;4.70;;;1.27;;
6217;SDS011;3142;48.206;11.550;2022-12-22T11:56:15;3.73;;;1.73;;
6217;SDS011;3142;48.206;11.550;2022-12-22T11:58:51;4.30;;;1.20;;
6217;SDS011;3142;48.206;11.550;2022-12-22T12:01:35;6.40;;;1.50;;
6217;SDS011;3142;48.206;11.550;2022-12-22T12:04:19;4.50;;;2.00;;
6217;SDS011;3142;48.206;11.550;2022-12-22T12:07:07;5.67;;;1.73;;
6217;SDS011;3142;48.206;11.550;2022-12-22T12:09:45;3.77;;;1.90;;
6217;SDS011;3142;48.206;11.550;2022-12-22T12:12:22;6.10;;;2.27;;
6217;SDS011;3142;48.206;11.550;2022-12-22T12:14:59;7.73;;;2.20;;
6217;SDS011;3142;48.206;11.550;2022-12-22T12:17:43;3.53;;;1.93;;
6217;SDS011;3142;48.206;11.550;2022-12-22T12:20:27;4.17;;;1.87;;
6217;SDS011;3142;48.206;11.550;2022-12-22T12:23:09;6.90;;;2.20;;
6217;SDS011;3142;48.206;11.550;2022-12-22T12:25:46;6.37;;;2.57;;
6217;SDS011;3142;48.206;11.550;2022-12-22T12:28:22;8.10;;;2.17;;
6217;SDS011;3142;48.206;11.550;2022-12-22T12:30:58;7.37;;;2.03;;
6217;SDS011;3142;48.206;11.550;2022-12-22T12:33:29;5.33;;;2.43;;
6217;SDS011;3142;48.206;11.550;2022-12-22T12:36:01;8.37;;;2.83;;
6217;SDS011;3142;48.206;11.550;2022-12-22T12:38:39;7.50;;;2.87;;
6217;SDS011;3142;48.206;11.550;2022-12-22T12:41:13;4.40;;;1.73;;
6217;SDS011;3142;48.206;11.550;2022-12-22T12:43:46;9.10;;;2.47;;
6217;SDS011;3142;48.206;11.550;2022-12-22T12:55:25;5.93;;;2.00;;
6217;SDS011;3142;48.206;11.550;2022-12-22T12:57:56;4.87;;;2.10;;
6217;SDS011;3142;48.206;11.550;2022-12-22T13:00:41;7.50;;;2.10;;
6217;SDS011;3142;48.206;11.550;2022-12-22T13:03:11;6.93;;;2.00;;
6217;SDS011;3142;48.206;11.550;2022-12-22T13:06:05;6.97;;;2.10;;
6217;SDS011;3142;48.206;11.550;2022-12-22T13:08:34;10.57;;;2.50;;
6217;SDS011;3142;48.206;11.550;2022-12-22T13:11:37;13.23;;;2.43;;
6217;SDS011;3142;48.206;11.550;2022-12-22T13:14:03;8.27;;;2.00;;
6217;SDS011;3142;48.206;11.550;2022-12-22T13:16:34;5.00;;;2.07;;
6217;SDS011;3142;48.206;11.550;2022-12-22T13:19:05;5.57;;;1.77;;
6217;SDS011;3142;48.206;11.550;2022-12-22T13:21:40;5.97;;;2.07;;
6217;SDS011;3142;48.206;11.550;2022-12-22T13:24:14;4.30;;;1.90;;
6217;SDS011;3142;48.206;11.550;2022-12-22T13:26:45;7.73;;;2.67;;
6217;SDS011;3142;48.206;11.550;2022-12-22T13:29:15;5.37;;;1.87;;
6217;SDS011;3142;48.206;11.550;2022-12-22T13:31:48;7.30;;;2.73;;
6217;SDS011;3142;48.206;11.550;2022-12-22T13:34:29;5.97;;;2.50;;
6217;SDS011;3142;48.206;11.550;2022-12-22T13:37:01;5.93;;;1.87;;
6217;SDS011;3142;48.206;11.550;2022-12-22T13:39:35;7.00;;;2.83;;
6217;SDS011;3142;48.206;11.550;2022-12-22T13:42:02;4.90;;;2.03;;
6217;SDS011;3142;48.206;11.550;2022-12-22T13:44:32;6.17;;;2.10;;
6217;SDS011;3142;48.206;11.550;2022-12-22T13:47:01;7.30;;;2.13;;
6217;SDS011;3142;48.206;11.550;2022-12-22T13:49:31;3.77;;;2.23;;
6217;SDS011;3142;48.206;11.550;2022-12-22T13:51:59;4.77;;;1.77;;
6217;SDS011;3142;48.206;11.550;2022-12-22T13:54:28;9.27;;;2.70;;
6217;SDS011;3142;48.206;11.550;2022-12-22T13:56:57;8.40;;;2.60;;
6217;SDS011;3142;48.206;11.550;2022-12-22T13:59:27;5.93;;;2.37;;
6217;SDS011;3142;48.206;11.550;2022-12-22T14:01:56;7.63;;;2.73;;
6217;SDS011;3142;48.206;11.550;2022-12-22T14:04:24;7.97;;;2.00;;
6217;SDS011;3142;48.206;11.550;2022-12-22T14:06:52;7.03;;;2.73;;
6217;SDS011;3142;48.206;11.550;2022-12-22T14:09:20;7.30;;;1.90;;
6217;SDS011;3142;48.206;11.550;2022-12-22T14:11:49;8.53;;;2.57;;
6217;SDS011;3142;48.206;11.550;2022-12-22T14:14:18;10.40;;;2.67;;
6217;SDS011;3142;48.206;11.550;2022-12-22T14:16:48;10.57;;;2.47;;
6217;SDS011;3142;48.206;11.550;2022-12-22T14:19:17;6.90;;;2.50;;
6217;SDS011;3142;48.206;11.550;2022-12-22T14:21:46;9.10;;;2.47;;
6217;SDS011;3142;48.206;11.550;2022-12-22T14:24:18;7.73;;;2.53;;
6217;SDS011;3142;48.206;11.550;2022-12-22T14:26:48;6.73;;;2.20;;
6217;SDS011;3142;48.206;11.550;2022-12-22T14:29:16;5.70;;;2.17;;
6217;SDS011;3142;48.206;11.550;2022-12-22T14:31:51;6.77;;;2.43;;
6217;SDS011;3142;48.206;11.550;2022-12-22T14:34:25;8.13;;;2.23;;
6217;SDS011;3142;48.206;11.550;2022-12-22T14:36:53;7.40;;;2.97;;
6217;SDS011;3142;48.206;11.550;2022-12-22T14:39:22;8.20;;;2.43;;
6217;SDS011;3142;48.206;11.550;2022-12-22T14:41:50;8.93;;;2.40;;
6217;SDS011;3142;48.206;11.550;2022-12-22T14:44:19;12.07;;;2.50;;
6217;SDS011;3142;48.206;11.550;2022-12-22T14:47:00;15.67;;;3.33;;
6217;SDS011;3142;48.206;11.550;2022-12-22T14:49:30;8.83;;;2.60;;
6217;SDS011;3142;48.206;11.550;2022-12-22T14:52:00;8.50;;;2.80;;
6217;SDS011;3142;48.206;11.550;2022-12-22T14:54:32;9.77;;;3.00;;
6217;SDS011;3142;48.206;11.550;2022-12-22T14:57:00;9.60;;;2.87;;
6217;SDS011;3142;48.206;11.550;2022-12-22T14:59:29;10.00;;;2.67;;
6217;SDS011;3142;48.206;11.550;2022-12-22T15:02:00;10.10;;;3.80;;
6217;SDS011;3142;48.206;11.550;2022-12-22T15:04:28;8.73;;;3.30;;
6217;SDS011;3142;48.206;11.550;2022-12-22T15:07:03;9.90;;;2.97;;
6217;SDS011;3142;48.206;11.550;2022-12-22T15:09:32;10.40;;;2.93;;
6217;SDS011;3142;48.206;11.550;2022-12-22T15:12:03;9.23;;;3.10;;
6217;SDS011;3142;48.206;11.550;2022-12-22T15:14:33;10.97;;;3.30;;
6217;SDS011;3142;48.206;11.550;2022-12-22T15:17:02;5.93;;;2.30;;
6217;SDS011;3142;48.206;11.550;2022-12-22T15:19:31;7.00;;;2.33;;
6217;SDS011;3142;48.206;11.550;2022-12-22T15:22:00;8.33;;;2.73;;
6217;SDS011;3142;48.206;11.550;2022-12-22T15:24:26;8.57;;;2.87;;
6217;SDS011;3142;48.206;11.550;2022-12-22T15:26:55;10.20;;;2.77;;
6217;SDS011;3142;48.206;11.550;2022-12-22T15:29:21;13.03;;;5.53;;
6217;SDS011;3142;48.206;11.550;2022-12-22T15:31:48;10.07;;;3.17;;
6217;SDS011;3142;48.206;11.550;2022-12-22T15:34:15;9.43;;;2.63;;
6217;SDS011;3142;48.206;11.550;2022-12-22T15:36:47;13.93;;;3.10;;
6217;SDS011;3142;48.206;11.550;2022-12-22T15:39:14;10.47;;;2.07;;
6217;SDS011;3142;48.206;11.550;2022-12-22T15:41:42;13.53;;;3.17;;
6217;SDS011;3142;48.206;11.550;2022-12-22T15:44:10;5.37;;;2.20;;
6217;SDS011;3142;48.206;11.550;2022-12-22T15:46:36;11.00;;;3.13;;
6217;SDS011;3142;48.206;11.550;2022-12-22T15:49:05;12.33;;;2.77;;